Terminal Aerodrome Forecast
Issued by NWS

Home | Current Version | Previous Version | Text Only | Print | Product List | Glossary On
Versions: 1 2 3 4 5 6 7 8 9 10 11 12
914
FTUS45 KABQ 221123
TAFFMN
TAF
KFMN 221123Z 2212/2312 06007KT P6SM FEW150
     FM221700 29010KT P6SM SKC
     FM222000 28022G32KT P6SM FEW150
     FM230200 32009KT P6SM SKC
     FM230600 VRB06KT P6SM SKC=

USA.gov is the U.S. government's official web portal to all federal, state and local government web resources and services.